M I D A S
Marine Information and Data Acquisition System
Tripno 974 of the Zeeleeuw from 2005-10-19 06:32:24 to 2005-10-19 13:12:36
Back to CruiseResearch ActivitiesStationsMapUnderway DataData graphs

EquipmentUnitsComments
TimeDGPSUTC
LatitudeDGPSDM.mWGS84
LongitudeDGPSDM.mWGS84
SpeedMeteo Stationm/sRelative wind speed
DirectionMeteo StationdegRelative wind direction
TemperatureMeteo Stationdeg CelciusAir temperature
PressureMeteo StationPaAtmospheric pressure
HumidityMeteo Station%Relative humidity
Missing or incorrect values are displayed as -999
Metereological data collected by the RV Zeeleeuw from 2005-10-19 06:33:04 to 2005-10-19 13:22:30
Time Latitude Longitude Speed Direction Temperature Pressure Humidity
2005-10-19 06:34 51°13.621 2°56.033 -999 105 11.1 101070 100
2005-10-19 06:35 51°13.649 2°55.93 -999 105 11.1 101070 100
2005-10-19 06:36 51°13.683 2°55.809 -999 134 11.1 101070 100
2005-10-19 06:37 51°13.695 2°55.735 -999 123 11.1 101060 100
2005-10-19 06:38 51°13.735 2°55.734 -999 255 11.2 101070 100
2005-10-19 06:39 51°13.836 2°55.631 -999 292 11.2 101070 100
2005-10-19 06:40 51°13.984 2°55.524 -999 312 11.2 101070 100
2005-10-19 06:41 51°14.142 2°55.404 -999 289 11.2 101060 100
2005-10-19 06:42 51°14.285 2°55.214 -999 309 11.2 101060 100
2005-10-19 06:43 51°14.42 2°54.986 -999 343 11.2 101060 100
2005-10-19 06:44 51°14.571 2°54.741 -999 296 11.3 101050 100
2005-10-19 06:45 51°14.727 2°54.494 -999 277 11.3 101050 100
2005-10-19 06:46 51°14.871 2°54.229 -999 295 11.3 101060 100
2005-10-19 06:47 51°15.001 2°53.97 -999 280 11.4 101060 100
2005-10-19 06:48 51°15.165 2°53.738 -999 258 11.5 101060 100
2005-10-19 06:49 51°15.313 2°53.475 -999 283 11.5 101060 100
2005-10-19 06:50 51°15.443 2°53.179 -999 270 11.5 101060 100
2005-10-19 06:51 51°15.567 2°52.876 -999 282 11.6 101060 100
2005-10-19 06:52 51°15.681 2°52.557 -999 282 11.6 101060 100
2005-10-19 06:53 51°15.79 2°52.235 -999 288 11.7 101070 100
2005-10-19 06:54 51°15.892 2°51.907 -999 286 11.7 101060 100
2005-10-19 06:55 51°15.992 2°51.577 -999 284 11.7 101070 100
2005-10-19 06:56 51°16.094 2°51.247 -999 294 11.7 101070 100
2005-10-19 06:57 51°16.195 2°50.922 -999 283 11.7 101060 100
2005-10-19 06:58 51°16.295 2°50.604 -999 294 11.8 101060 100
2005-10-19 06:59 51°16.401 2°50.295 -999 286 11.8 101060 100
2005-10-19 07:00 51°16.509 2°49.972 -999 291 11.8 101060 100
2005-10-19 07:01 51°16.642 2°49.69 -999 259 11.8 101060 100
2005-10-19 07:02 51°16.841 2°49.625 -999 153 11.9 101070 100
2005-10-19 07:03 51°17.035 2°49.668 -999 104 11.9 101070 100
2005-10-19 07:04 51°17.222 2°49.788 -999 94 11.9 101060 100
2005-10-19 07:05 51°17.404 2°49.929 -999 93 11.9 101060 100
2005-10-19 07:06 51°17.574 2°50.101 -999 88 11.9 101060 100
2005-10-19 07:07 51°17.738 2°50.261 -999 107 12 101060 100
2005-10-19 07:08 51°17.914 2°50.43 -999 99 12 101060 100
2005-10-19 07:09 51°18.085 2°50.592 -999 108 11.9 101060 100
2005-10-19 07:10 51°18.256 2°50.754 -999 100 11.9 101060 100
2005-10-19 07:11 51°18.426 2°50.914 -999 84 12 101070 100
2005-10-19 07:12 51°18.598 2°51.074 -999 93 12 101060 100
2005-10-19 07:13 51°18.768 2°51.231 -999 97 11.9 101060 100
2005-10-19 07:14 51°18.94 2°51.386 -999 101 11.9 101060 100
2005-10-19 07:15 51°19.11 2°51.542 -999 102 11.9 101070 100
2005-10-19 07:16 51°19.28 2°51.697 -999 105 12 101060 100
2005-10-19 07:17 51°19.448 2°51.858 -999 123 12.1 101060 100
2005-10-19 07:18 51°19.613 2°52.029 -999 109 12.1 101060 100
2005-10-19 07:19 51°19.779 2°52.198 -999 99 12 101060 100
2005-10-19 07:20 51°19.943 2°52.367 -999 100 12.1 101060 100
2005-10-19 07:21 51°20.108 2°52.533 -999 108 12.1 101060 100
2005-10-19 07:22 51°20.274 2°52.693 -999 100 12.1 101060 100
2005-10-19 07:23 51°20.442 2°52.845 -999 111 12.1 101060 100
2005-10-19 07:24 51°20.621 2°52.966 -999 135 12.1 101060 100
2005-10-19 07:25 51°20.809 2°53.063 -999 152 12.1 101060 100
2005-10-19 07:26 51°20.997 2°53.157 -999 135 12.2 101060 100
2005-10-19 07:27 51°21.188 2°53.243 -999 139 12.2 101060 100
2005-10-19 07:28 51°21.38 2°53.33 -999 130 12.2 101050 100
2005-10-19 07:29 51°21.573 2°53.409 -999 133 12.2 101060 100
2005-10-19 07:30 51°21.766 2°53.483 -999 147 12.2 101060 100
2005-10-19 07:31 51°21.96 2°53.564 -999 112 12.2 101060 100
2005-10-19 07:32 51°22.156 2°53.643 -999 144 12.2 101060 100
2005-10-19 07:33 51°22.355 2°53.704 -999 44 12.3 101060 100
2005-10-19 07:34 51°22.554 2°53.757 -999 116 12.3 101070 100
2005-10-19 07:35 51°22.752 2°53.815 -999 131 12.3 101060 100
2005-10-19 07:36 51°22.95 2°53.872 -999 145 12.2 101060 100
2005-10-19 07:37 51°23.147 2°53.919 -999 113 12.3 101070 100
2005-10-19 07:38 51°23.346 2°53.967 -999 134 12.3 101070 100
2005-10-19 07:39 51°23.542 2°54.015 -999 131 12.3 101070 100
2005-10-19 07:40 51°23.738 2°54.062 -999 147 12.3 101080 100
2005-10-19 07:41 51°23.933 2°54.11 -999 147 12.4 101080 100
2005-10-19 07:42 51°24.128 2°54.156 -999 148 12.5 101080 100
2005-10-19 07:43 51°24.325 2°54.201 -999 155 12.6 101080 100
2005-10-19 07:44 51°24.52 2°54.252 -999 146 12.5 101070 100
2005-10-19 07:45 51°24.712 2°54.307 -999 129 12.4 101070 100
2005-10-19 07:46 51°24.906 2°54.358 -999 156 12.5 101070 100
2005-10-19 07:47 51°25.102 2°54.408 -999 139 12.5 101070 100
2005-10-19 07:48 51°25.3 2°54.46 -999 142 12.5 101080 100
2005-10-19 07:49 51°25.494 2°54.511 -999 142 12.6 101070 100
2005-10-19 07:50 51°25.689 2°54.565 -999 151 12.5 101070 100
2005-10-19 07:51 51°25.885 2°54.608 -999 162 12.5 101070 100
2005-10-19 07:52 51°26.08 2°54.655 -999 164 12.5 101060 100
2005-10-19 07:53 51°26.274 2°54.714 -999 130 12.4 101070 100
2005-10-19 07:54 51°26.464 2°54.776 -999 152 12.6 101070 100
2005-10-19 07:55 51°26.655 2°54.831 -999 151 12.5 101070 100
2005-10-19 07:56 51°26.848 2°54.881 -999 154 12.6 101070 100
2005-10-19 07:57 51°27.042 2°54.926 -999 178 12.6 101070 100
2005-10-19 07:58 51°27.235 2°54.969 -999 144 12.6 101070 100
2005-10-19 07:59 51°27.429 2°55.014 -999 166 12.7 101060 100
2005-10-19 08:00 51°27.624 2°55.059 -999 179 12.7 101070 100
2005-10-19 08:01 51°27.816 2°55.106 -999 162 12.7 101070 100
2005-10-19 08:02 51°28.009 2°55.151 -999 170 12.6 101070 100
2005-10-19 08:03 51°28.201 2°55.195 -999 174 12.7 101070 100
2005-10-19 08:04 51°28.392 2°55.248 -999 161 12.7 101070 100
2005-10-19 08:05 51°28.584 2°55.299 -999 167 12.7 101070 100
2005-10-19 08:06 51°28.776 2°55.347 -999 171 12.7 101070 100
2005-10-19 08:07 51°28.969 2°55.401 -999 165 12.7 101070 100
2005-10-19 08:08 51°29.163 2°55.451 -999 201 12.8 101070 100
2005-10-19 08:09 51°29.361 2°55.499 -999 166 12.8 101070 100
2005-10-19 08:10 51°29.559 2°55.554 -999 161 12.9 101070 100
2005-10-19 08:11 51°29.758 2°55.606 -999 182 13.1 101070 100
2005-10-19 08:12 51°29.959 2°55.664 -999 182 13.1 101070 100
2005-10-19 08:13 51°30.158 2°55.725 -999 179 13.1 101070 100
2005-10-19 08:14 51°30.35 2°55.776 -999 163 13.1 101070 99
2005-10-19 08:15 51°30.553 2°55.821 -999 172 13.1 101070 99
2005-10-19 08:16 51°30.747 2°55.864 -999 167 13.1 101070 99
2005-10-19 08:17 51°30.938 2°55.909 -999 227 13.1 101070 99
2005-10-19 08:18 51°31.131 2°55.949 -999 174 13.3 101080 99
2005-10-19 08:19 51°31.322 2°56.007 -999 198 13.4 101070 99
2005-10-19 08:20 51°31.508 2°56.06 -999 175 13.3 101070 98
2005-10-19 08:21 51°31.692 2°56.12 -999 150 13.3 101070 98
2005-10-19 08:22 51°31.876 2°56.176 -999 168 13.3 101070 99
2005-10-19 08:23 51°32.061 2°56.232 -999 178 13.4 101070 98
2005-10-19 08:24 51°32.247 2°56.286 -999 198 13.5 101070 98
2005-10-19 08:25 51°32.435 2°56.34 -999 216 13.6 101070 98
2005-10-19 08:26 51°32.626 2°56.373 -999 176 13.6 101060 98
2005-10-19 08:27 51°32.817 2°56.41 -999 192 13.5 101060 97
2005-10-19 08:28 51°33.011 2°56.439 -999 243 13.4 101060 97
2005-10-19 08:29 51°33.205 2°56.463 -999 218 13.3 101060 97
2005-10-19 08:30 51°33.402 2°56.483 -999 212 13.3 101060 97
2005-10-19 08:31 51°33.602 2°56.492 -999 205 13.3 101060 97
2005-10-19 08:32 51°33.796 2°56.504 -999 246 13.3 101060 98
2005-10-19 08:33 51°33.992 2°56.48 -999 226 13.4 101060 98
2005-10-19 08:34 51°34.184 2°56.448 -999 204 13.3 101060 97
2005-10-19 08:35 51°34.376 2°56.418 -999 214 13.2 101060 97
2005-10-19 08:36 51°34.547 2°56.295 -999 280 13.3 101050 98
2005-10-19 08:37 51°34.618 2°55.967 -999 312 13.3 101020 98
2005-10-19 08:38 51°34.602 2°55.595 -999 319 13.3 100980 98
2005-10-19 08:39 51°34.548 2°55.221 -999 323 13.3 100990 98
2005-10-19 08:40 51°34.452 2°54.864 -999 331 13.2 100980 98
2005-10-19 08:41 51°34.348 2°54.51 -999 329 13.3 100980 98
2005-10-19 08:42 51°34.245 2°54.156 -999 333 13.3 100990 98
2005-10-19 08:43 51°34.139 2°53.805 -999 332 13.3 100990 98
2005-10-19 08:44 51°34.033 2°53.456 -999 327 13.3 100990 98
2005-10-19 08:45 51°33.925 2°53.105 -999 325 13.4 100990 98
2005-10-19 08:46 51°33.818 2°52.754 -999 327 13.3 100980 98
2005-10-19 08:47 51°33.713 2°52.4 -999 329 13.3 100980 97
2005-10-19 08:48 51°33.606 2°52.049 -999 330 13.3 100980 98
2005-10-19 08:49 51°33.498 2°51.698 -999 334 13.3 100980 98
2005-10-19 08:50 51°33.391 2°51.344 -999 329 13.3 100980 98
2005-10-19 08:51 51°33.283 2°50.994 -999 327 13.3 100980 98
2005-10-19 08:52 51°33.177 2°50.639 -999 332 13.3 100970 98
2005-10-19 08:53 51°33.069 2°50.284 -999 334 13.3 100980 98
2005-10-19 08:54 51°32.96 2°49.928 -999 332 13.3 100970 97
2005-10-19 08:55 51°32.852 2°49.569 -999 328 13.3 100980 98
2005-10-19 08:56 51°32.743 2°49.213 -999 326 13.3 100970 98
2005-10-19 08:57 51°32.634 2°48.862 -999 331 13.4 100970 98
2005-10-19 08:58 51°32.526 2°48.509 -999 326 13.4 100980 98
2005-10-19 08:59 51°32.417 2°48.155 -999 325 13.4 100980 98
2005-10-19 09:00 51°32.311 2°47.801 -999 331 13.4 100960 98
2005-10-19 09:01 51°32.209 2°47.441 -999 327 13.4 100970 98
2005-10-19 09:02 51°32.106 2°47.081 -999 328 13.4 100960 98
2005-10-19 09:03 51°32.004 2°46.718 -999 322 13.5 100980 98
2005-10-19 09:04 51°31.905 2°46.359 -999 322 13.5 100970 98
2005-10-19 09:05 51°31.804 2°46.001 -999 322 13.4 100980 98
2005-10-19 09:06 51°31.704 2°45.644 -999 325 13.5 100990 98
2005-10-19 09:07 51°31.604 2°45.288 -999 322 13.4 100980 98
2005-10-19 09:08 51°31.508 2°44.942 -999 321 13.5 100990 98
2005-10-19 09:09 51°31.404 2°44.574 -999 324 13.5 100960 98
2005-10-19 09:10 51°31.304 2°44.218 -999 325 13.5 100970 98
2005-10-19 09:11 51°31.204 2°43.862 -999 328 13.5 100980 98
2005-10-19 09:12 51°31.106 2°43.505 -999 324 13.5 100980 98
2005-10-19 09:13 51°31.007 2°43.148 -999 320 13.5 100990 98
2005-10-19 09:14 51°30.901 2°42.792 -999 323 13.5 100980 98
2005-10-19 09:15 51°30.791 2°42.443 -999 323 13.5 100970 97
2005-10-19 09:16 51°30.682 2°42.095 -999 325 13.5 100980 98
2005-10-19 09:17 51°30.573 2°41.748 -999 322 13.5 100990 97
2005-10-19 09:18 51°30.468 2°41.403 -999 318 13.5 100980 98
2005-10-19 09:19 51°30.364 2°41.058 -999 322 13.5 100990 98
2005-10-19 09:20 51°30.255 2°40.714 -999 326 13.6 101000 98
2005-10-19 09:21 51°30.147 2°40.371 -999 325 13.6 100980 98
2005-10-19 09:22 51°30.04 2°40.026 -999 328 13.6 100980 98
2005-10-19 09:23 51°29.917 2°39.704 -999 342 13.6 100980 97
2005-10-19 09:24 51°29.699 2°39.639 -999 13 13.6 101020 97
2005-10-19 09:25 51°29.48 2°39.735 -999 23 13.5 101000 98
2005-10-19 09:26 51°29.27 2°39.864 -999 27 13.6 101010 98
2005-10-19 09:27 51°29.064 2°39.999 -999 22 13.6 100990 98
2005-10-19 09:28 51°28.856 2°40.133 -999 21 13.6 101000 98
2005-10-19 09:29 51°28.733 2°40.368 -999 67 13.6 100990 98
2005-10-19 09:30 51°28.783 2°40.65 -999 100 13.6 101010 98
2005-10-19 09:31 51°28.886 2°40.896 -999 96 13.6 101020 98
2005-10-19 09:32 51°28.993 2°41.14 -999 110 13.5 101030 98
2005-10-19 09:33 51°29.095 2°41.381 -999 106 13.5 101020 98
2005-10-19 09:34 51°29.202 2°41.622 -999 99 13.6 101030 98
2005-10-19 09:35 51°29.334 2°41.837 -999 123 13.6 101030 98
2005-10-19 09:36 51°29.469 2°42.044 -999 110 13.6 101020 98
2005-10-19 09:37 51°29.6 2°42.251 -999 117 13.6 101030 98
2005-10-19 09:38 51°29.729 2°42.463 -999 104 13.6 101030 98
2005-10-19 09:39 51°29.855 2°42.688 -999 96 13.6 101020 98
2005-10-19 09:40 51°29.93 2°42.966 -999 97 13.6 101010 98
2005-10-19 09:41 51°29.993 2°43.254 -999 89 13.6 101010 98
2005-10-19 09:42 51°30.057 2°43.541 -999 98 13.6 101010 98
2005-10-19 09:43 51°30.123 2°43.83 -999 95 13.6 101010 98
2005-10-19 09:44 51°30.191 2°44.115 -999 89 13.6 101000 98
2005-10-19 09:45 51°30.257 2°44.407 -999 85 13.6 101010 98
2005-10-19 09:46 51°30.325 2°44.695 -999 85 13.6 101000 98
2005-10-19 09:47 51°30.393 2°44.978 -999 96 13.7 101010 98
2005-10-19 09:48 51°30.46 2°45.267 -999 92 13.7 101020 98
2005-10-19 09:49 51°30.53 2°45.546 -999 99 13.7 101030 98
2005-10-19 09:50 51°30.599 2°45.826 -999 90 13.7 101030 98
2005-10-19 09:51 51°30.678 2°46.103 -999 89 13.7 101030 98
2005-10-19 09:52 51°30.753 2°46.385 -999 91 13.8 101030 99
2005-10-19 09:53 51°30.83 2°46.662 -999 89 13.7 101020 98
2005-10-19 09:54 51°30.904 2°46.945 -999 86 13.8 101030 98
2005-10-19 09:55 51°30.988 2°47.218 -999 98 13.8 101040 98
2005-10-19 09:56 51°31.077 2°47.483 -999 93 13.8 101030 98
2005-10-19 09:57 51°31.165 2°47.752 -999 95 13.8 101030 98
2005-10-19 09:58 51°31.249 2°48.021 -999 92 13.8 101020 98
2005-10-19 09:59 51°31.337 2°48.288 -999 100 13.8 101040 98
2005-10-19 10:00 51°31.425 2°48.554 -999 91 13.8 101020 98
2005-10-19 10:01 51°31.515 2°48.821 -999 91 13.8 101030 98
2005-10-19 10:02 51°31.603 2°49.087 -999 93 13.8 101030 98
2005-10-19 10:03 51°31.69 2°49.359 -999 98 13.8 101030 98
2005-10-19 10:04 51°31.78 2°49.623 -999 91 13.8 101020 98
2005-10-19 10:05 51°31.866 2°49.888 -999 93 13.8 101030 98
2005-10-19 10:06 51°31.956 2°50.152 -999 100 13.8 101040 98
2005-10-19 10:07 51°32.042 2°50.42 -999 97 13.8 101040 99
2005-10-19 10:08 51°32.128 2°50.689 -999 93 13.8 101030 99
2005-10-19 10:09 51°32.216 2°50.958 -999 98 13.8 101040 98
2005-10-19 10:10 51°32.303 2°51.232 -999 99 13.8 101040 98
2005-10-19 10:11 51°32.393 2°51.507 -999 92 13.8 101040 98
2005-10-19 10:12 51°32.482 2°51.784 -999 95 13.8 101030 98
2005-10-19 10:13 51°32.57 2°52.057 -999 95 13.8 101040 98
2005-10-19 10:14 51°32.658 2°52.329 -999 95 13.8 101050 98
2005-10-19 10:15 51°32.748 2°52.599 -999 92 13.8 101040 98
2005-10-19 10:16 51°32.837 2°52.878 -999 97 13.8 101030 98
2005-10-19 10:17 51°32.928 2°53.151 -999 100 13.9 101030 98
2005-10-19 10:18 51°33.018 2°53.421 -999 95 13.9 101030 98
2005-10-19 10:19 51°33.11 2°53.694 -999 96 13.9 101030 98
2005-10-19 10:20 51°33.201 2°53.966 -999 99 13.9 101040 98
2005-10-19 10:21 51°33.29 2°54.245 -999 94 13.9 101040 98
2005-10-19 10:22 51°33.385 2°54.526 -999 88 13.9 101040 98
2005-10-19 10:23 51°33.477 2°54.797 -999 101 13.8 101020 98
2005-10-19 10:24 51°33.568 2°55.075 -999 99 13.9 101050 98
2005-10-19 10:25 51°33.662 2°55.354 -999 92 13.9 101050 98
2005-10-19 10:26 51°33.755 2°55.623 -999 98 13.9 101050 98
2005-10-19 10:27 51°33.848 2°55.905 -999 102 13.9 101050 98
2005-10-19 10:28 51°33.936 2°56.183 -999 98 13.8 101050 98
2005-10-19 10:29 51°34.03 2°56.451 -999 101 13.9 101060 98
2005-10-19 10:30 51°34.122 2°56.726 -999 94 13.9 101050 98
2005-10-19 10:31 51°34.211 2°57 -999 99 13.9 101040 98
2005-10-19 10:32 51°34.306 2°57.272 -999 97 13.9 101050 98
2005-10-19 10:33 51°34.396 2°57.543 -999 93 13.9 101040 98
2005-10-19 10:34 51°34.486 2°57.823 -999 106 13.9 101050 98
2005-10-19 10:35 51°34.578 2°58.094 -999 103 13.9 101040 98
2005-10-19 10:36 51°34.668 2°58.369 -999 93 13.9 101040 98
2005-10-19 10:37 51°34.753 2°58.65 -999 103 13.9 101040 98
2005-10-19 10:38 51°34.841 2°58.925 -999 97 13.9 101030 98
2005-10-19 10:39 51°34.922 2°59.205 -999 101 13.9 101040 98
2005-10-19 10:40 51°35.009 2°59.477 -999 96 13.9 101020 98
2005-10-19 10:41 51°35.1 2°59.748 -999 94 14 101030 98
2005-10-19 10:42 51°35.184 3°0.024 -999 92 14 101020 98
2005-10-19 10:43 51°35.198 3°0.333 -999 68 13.9 101010 98
2005-10-19 10:44 51°35.103 3°0.626 -999 44 13.9 100990 98
2005-10-19 10:45 51°34.949 3°0.873 -999 37 13.9 100990 98
2005-10-19 10:46 51°34.752 3°1.035 -999 12 14 101010 98
2005-10-19 10:47 51°34.541 3°0.935 -999 340 13.9 101000 98
2005-10-19 10:48 51°34.41 3°0.64 -999 333 14 100990 98
2005-10-19 10:49 51°34.29 3°0.33 -999 330 14 100980 98
2005-10-19 10:50 51°34.176 3°0.013 -999 329 14 100990 98
2005-10-19 10:51 51°34.061 2°59.697 -999 325 14 100980 97
2005-10-19 10:52 51°33.949 2°59.379 -999 331 14 101000 97
2005-10-19 10:53 51°33.836 2°59.065 -999 337 14.1 100980 97
2005-10-19 10:54 51°33.725 2°58.749 -999 329 14.1 100980 97
2005-10-19 10:55 51°33.614 2°58.434 -999 330 14.1 100970 97
2005-10-19 10:56 51°33.503 2°58.119 -999 333 14.2 100970 97
2005-10-19 10:57 51°33.391 2°57.804 -999 333 14.1 100980 97
2005-10-19 10:58 51°33.274 2°57.494 -999 332 14.2 100960 97
2005-10-19 10:59 51°33.156 2°57.185 -999 327 14.2 100970 97
2005-10-19 11:00 51°33.035 2°56.878 -999 330 14.2 100970 97
2005-10-19 11:01 51°32.915 2°56.571 -999 330 14.2 100960 97
2005-10-19 11:02 51°32.794 2°56.263 -999 331 14.2 100960 97
2005-10-19 11:03 51°32.673 2°55.956 -999 331 14.2 100970 97
2005-10-19 11:04 51°32.546 2°55.655 -999 336 14.3 100950 97
2005-10-19 11:05 51°32.42 2°55.357 -999 337 14.3 100960 97
2005-10-19 11:06 51°32.293 2°55.06 -999 336 14.3 100960 97
2005-10-19 11:07 51°32.168 2°54.764 -999 334 14.3 100970 97
2005-10-19 11:08 51°32.044 2°54.466 -999 334 14.3 100960 97
2005-10-19 11:09 51°31.92 2°54.172 -999 328 14.4 100960 97
2005-10-19 11:10 51°31.799 2°53.878 -999 334 14.4 100960 96
2005-10-19 11:11 51°31.676 2°53.584 -999 337 14.4 100960 96
2005-10-19 11:12 51°31.555 2°53.289 -999 337 14.4 100970 96
2005-10-19 11:13 51°31.432 2°52.998 -999 338 14.5 100960 96
2005-10-19 11:14 51°31.311 2°52.706 -999 339 14.5 100960 96
2005-10-19 11:15 51°31.189 2°52.415 -999 341 14.5 100960 95
2005-10-19 11:16 51°31.068 2°52.125 -999 337 14.5 100960 95
2005-10-19 11:17 51°30.946 2°51.836 -999 340 14.5 100960 95
2005-10-19 11:18 51°30.825 2°51.549 -999 336 14.6 100970 95
2005-10-19 11:19 51°30.704 2°51.261 -999 339 14.6 100960 95
2005-10-19 11:20 51°30.582 2°50.972 -999 339 14.6 100970 95
2005-10-19 11:21 51°30.459 2°50.685 -999 339 14.6 100950 94
2005-10-19 11:22 51°30.339 2°50.397 -999 342 14.6 100950 95
2005-10-19 11:23 51°30.219 2°50.108 -999 343 14.6 100960 94
2005-10-19 11:24 51°30.1 2°49.82 -999 344 14.7 100940 94
2005-10-19 11:25 51°29.98 2°49.536 -999 337 14.7 100950 94
2005-10-19 11:26 51°29.864 2°49.249 -999 338 14.7 100960 94
2005-10-19 11:27 51°29.748 2°48.963 -999 339 14.7 100950 94
2005-10-19 11:28 51°29.632 2°48.676 -999 339 14.7 100960 94
2005-10-19 11:29 51°29.517 2°48.392 -999 340 14.7 100940 94
2005-10-19 11:30 51°29.402 2°48.109 -999 336 14.7 100940 93
2005-10-19 11:31 51°29.289 2°47.828 -999 338 14.7 100960 93
2005-10-19 11:32 51°29.176 2°47.548 -999 340 14.7 100950 93
2005-10-19 11:33 51°29.065 2°47.267 -999 338 14.7 100950 93
2005-10-19 11:34 51°28.954 2°46.989 -999 339 14.8 100950 93
2005-10-19 11:35 51°28.843 2°46.713 -999 337 14.8 100940 93
2005-10-19 11:36 51°28.731 2°46.44 -999 337 14.8 100950 93
2005-10-19 11:37 51°28.611 2°46.176 -999 342 14.8 100950 93
2005-10-19 11:38 51°28.458 2°45.96 -999 350 14.9 100950 93
2005-10-19 11:39 51°28.302 2°45.748 -999 345 14.9 100940 93
2005-10-19 11:40 51°28.147 2°45.539 -999 349 14.9 100950 93
2005-10-19 11:41 51°27.994 2°45.33 -999 343 14.9 100940 93
2005-10-19 11:42 51°27.842 2°45.118 -999 340 15 100940 93
2005-10-19 11:43 51°27.691 2°44.906 -999 345 15 100930 93
2005-10-19 11:44 51°27.539 2°44.696 -999 350 15.1 100930 93
2005-10-19 11:45 51°27.387 2°44.487 -999 344 15.2 100920 93
2005-10-19 11:46 51°27.238 2°44.276 -999 341 15.2 100910 92
2005-10-19 11:47 51°27.091 2°44.058 -999 344 15.2 100920 92
2005-10-19 11:48 51°26.943 2°43.848 -999 349 15.2 100910 91
2005-10-19 11:49 51°26.789 2°43.642 -999 350 15.3 100910 91
2005-10-19 11:50 51°26.635 2°43.441 -999 352 15.3 100920 90
2005-10-19 11:51 51°26.462 2°43.284 -999 356 15.4 100910 90
2005-10-19 11:52 51°26.271 2°43.178 -999 359 15.4 100920 90
2005-10-19 11:53 51°26.081 2°43.074 -999 358 15.4 100920 89
2005-10-19 11:54 51°25.889 2°42.979 -999 5 15.4 100910 89
2005-10-19 11:55 51°25.692 2°42.913 -999 12 15.4 100910 88
2005-10-19 11:56 51°25.488 2°42.898 -999 8 15.4 100920 89
2005-10-19 11:57 51°25.283 2°42.887 -999 7 15.4 100920 89
2005-10-19 11:58 51°25.079 2°42.875 -999 12 15.4 100910 89
2005-10-19 11:59 51°24.874 2°42.891 -999 12 15.4 100930 89
2005-10-19 12:00 51°24.669 2°42.912 -999 11 15.4 100910 89
2005-10-19 12:01 51°24.462 2°42.943 -999 11 15.4 100910 89
2005-10-19 12:02 51°24.26 2°42.979 -999 7 15.5 100920 89
2005-10-19 12:03 51°24.058 2°42.96 -999 7 15.5 100920 88
2005-10-19 12:04 51°23.854 2°42.947 -999 9 15.6 100900 88
2005-10-19 12:05 51°23.651 2°42.937 -999 15 15.6 100910 88
2005-10-19 12:06 51°23.454 2°42.897 -999 11 15.6 100910 88
2005-10-19 12:07 51°23.259 2°42.856 -999 13 15.6 100910 88
2005-10-19 12:08 51°23.061 2°42.865 -999 21 15.7 100910 88
2005-10-19 12:09 51°22.864 2°42.916 -999 26 15.6 100900 87
2005-10-19 12:10 51°22.667 2°42.975 -999 20 15.7 100910 87
2005-10-19 12:11 51°22.47 2°43.033 -999 25 15.7 100910 87
2005-10-19 12:12 51°22.271 2°43.095 -999 20 15.8 100910 86
2005-10-19 12:13 51°22.071 2°43.158 -999 22 15.8 100910 86
2005-10-19 12:14 51°21.874 2°43.229 -999 29 15.8 100900 85
2005-10-19 12:15 51°21.687 2°43.384 -999 30 15.8 100890 85
2005-10-19 12:16 51°21.501 2°43.547 -999 27 15.8 100900 85
2005-10-19 12:17 51°21.315 2°43.711 -999 31 15.8 100900 84
2005-10-19 12:18 51°21.127 2°43.871 -999 29 15.8 100900 85
2005-10-19 12:19 51°20.94 2°44.032 -999 28 15.8 100910 84
2005-10-19 12:20 51°20.753 2°44.193 -999 29 15.8 100900 84
2005-10-19 12:21 51°20.577 2°44.384 -999 33 15.8 100910 85
2005-10-19 12:22 51°20.409 2°44.58 -999 26 15.8 100900 85
2005-10-19 12:23 51°20.241 2°44.778 -999 31 15.8 100910 85
2005-10-19 12:24 51°20.073 2°44.975 -999 31 15.9 100910 85
2005-10-19 12:25 51°19.91 2°45.19 -999 29 15.8 100910 85
2005-10-19 12:26 51°19.746 2°45.407 -999 33 15.8 100920 85
2005-10-19 12:27 51°19.579 2°45.632 -999 28 15.8 100910 85
2005-10-19 12:28 51°19.406 2°45.851 -999 32 15.8 100920 86
2005-10-19 12:29 51°19.234 2°46.069 -999 31 15.9 100920 85
2005-10-19 12:30 51°19.064 2°46.283 -999 27 15.9 100920 85
2005-10-19 12:31 51°18.899 2°46.507 -999 28 15.9 100920 85
2005-10-19 12:32 51°18.739 2°46.736 -999 29 15.9 100920 85
2005-10-19 12:33 51°18.576 2°46.962 -999 26 15.9 100920 84
2005-10-19 12:34 51°18.413 2°47.186 -999 34 15.9 100920 84
2005-10-19 12:35 51°18.25 2°47.41 -999 29 15.9 100920 83
2005-10-19 12:36 51°18.087 2°47.636 -999 29 15.9 100920 83
2005-10-19 12:37 51°17.924 2°47.859 -999 31 15.9 100920 83
2005-10-19 12:38 51°17.76 2°48.084 -999 32 15.8 100910 82
2005-10-19 12:39 51°17.598 2°48.317 -999 30 15.8 100910 83
2005-10-19 12:40 51°17.444 2°48.563 -999 32 15.8 100920 82
2005-10-19 12:41 51°17.292 2°48.814 -999 32 15.8 100920 82
2005-10-19 12:42 51°17.138 2°49.061 -999 30 15.8 100920 82
2005-10-19 12:43 51°16.987 2°49.308 -999 27 15.9 100920 83
2005-10-19 12:44 51°16.838 2°49.542 -999 31 15.9 100920 83
2005-10-19 12:45 51°16.737 2°49.698 -999 24 15.8 100930 82
2005-10-19 12:46 51°16.653 2°49.79 -999 16 15.9 100930 82
2005-10-19 12:47 51°16.551 2°49.863 -999 27 15.9 100920 80
2005-10-19 12:48 51°16.406 2°50.093 -999 37 15.9 100900 81
2005-10-19 12:49 51°16.261 2°50.351 -999 34 15.9 100890 81
2005-10-19 12:50 51°16.117 2°50.619 -999 33 15.9 100900 81
2005-10-19 12:51 51°15.976 2°50.888 -999 34 15.8 100900 81
2005-10-19 12:52 51°15.835 2°51.162 -999 38 15.8 100910 81
2005-10-19 12:53 51°15.695 2°51.437 -999 41 15.8 100900 81
2005-10-19 12:54 51°15.555 2°51.712 -999 33 15.9 100900 80
2005-10-19 12:55 51°15.415 2°51.986 -999 40 15.9 100910 80
2005-10-19 12:56 51°15.276 2°52.257 -999 38 15.9 100910 80
2005-10-19 12:57 51°15.141 2°52.534 -999 43 16 100910 79
2005-10-19 12:58 51°15.018 2°52.826 -999 53 16 100910 79
2005-10-19 12:59 51°14.908 2°53.136 -999 43 16.1 100920 78
2005-10-19 13:00 51°14.797 2°53.443 -999 54 16.2 100920 78
2005-10-19 13:01 51°14.704 2°53.765 -999 58 16.2 100930 77
2005-10-19 13:02 51°14.63 2°54.112 -999 58 16.3 100930 77
2005-10-19 13:03 51°14.551 2°54.434 -999 69 16.3 100940 75
2005-10-19 13:04 51°14.482 2°54.567 -999 23 16.4 100940 75
2005-10-19 13:05 51°14.455 2°54.567 -999 348 16.5 100950 75
2005-10-19 13:06 51°14.448 2°54.556 -999 326 16.6 100950 74
2005-10-19 13:07 51°14.454 2°54.54 -999 324 16.7 100950 74
2005-10-19 13:08 51°14.469 2°54.508 -999 289 16.7 100950 74
2005-10-19 13:09 51°14.553 2°54.512 -999 194 16.7 100960 74
2005-10-19 13:10 51°14.581 2°54.684 -999 60 16.7 100960 74
2005-10-19 13:11 51°14.474 2°54.874 -999 39 16.7 100940 75
2005-10-19 13:12 51°14.347 2°55.122 -999 32 16.7 100940 74
2005-10-19 13:13 51°14.21 2°55.33 -999 29 16.8 100950 75
2005-10-19 13:14 51°14.092 2°55.434 -999 42 16.9 100940 74
2005-10-19 13:15 51°13.989 2°55.51 -999 37 17 100960 74
2005-10-19 13:16 51°13.881 2°55.592 -999 25 17.1 100950 74
2005-10-19 13:17 51°13.768 2°55.693 -999 48 17.2 100950 74
2005-10-19 13:18 51°13.692 2°55.829 -999 54 17.2 100950 74
2005-10-19 13:19 51°13.647 2°55.938 -999 68 17.2 100960 74
2005-10-19 13:20 51°13.617 2°56.025 -999 56 17.2 100960 73
2005-10-19 13:21 51°13.605 2°56.085 -999 87 17.2 100970 73
2005-10-19 13:22 51°13.603 2°56.099 -999 86 17.1 100960 73